createdAt,value
2019-02-20T00:02:12.202Z,95898.28
2019-02-20T00:04:40.626Z,95896.98
2019-02-20T00:07:09.888Z,95904.91
2019-02-20T00:09:39.279Z,95901.31
2019-02-20T00:12:08.009Z,95900.25
2019-02-20T00:14:37.470Z,95900.08
2019-02-20T00:17:06.033Z,95907.41
2019-02-20T00:19:34.740Z,95903.56
2019-02-20T00:22:03.630Z,95905.22
2019-02-20T00:24:32.215Z,95902.72
2019-02-20T00:27:01.409Z,95902.49
2019-02-20T00:29:30.815Z,95905.42
2019-02-20T00:31:59.194Z,95908.59
2019-02-20T00:34:27.883Z,95900.86
2019-02-20T00:39:52.430Z,95905.16
2019-02-20T00:42:19.842Z,95904.27
2019-02-20T00:45:05.714Z,95908.36
2019-02-20T00:47:42.919Z,95910.34
2019-02-20T00:50:11.354Z,95910.04
2019-02-20T00:53:01.253Z,95912.94
2019-02-20T00:55:28.622Z,95909.77
2019-02-20T00:57:55.961Z,95909.00
2019-02-20T01:00:23.670Z,95910.69
2019-02-20T01:02:51.111Z,95916.75
2019-02-20T01:05:18.463Z,95912.75
2019-02-20T01:07:45.862Z,95914.40
2019-02-20T01:10:13.200Z,95911.96
2019-02-20T01:12:40.563Z,95906.80
2019-02-20T01:15:08.442Z,95910.67
2019-02-20T01:17:35.782Z,95907.77
2019-02-20T01:20:03.540Z,95912.83
2019-02-20T01:22:30.921Z,95911.51
2019-02-20T01:24:58.299Z,95906.41
2019-02-20T01:27:25.635Z,95904.93
2019-02-20T01:29:53.025Z,95908.36
2019-02-20T01:32:20.374Z,95912.22
2019-02-20T01:34:47.719Z,95910.89
2019-02-20T01:37:15.108Z,95904.99
2019-02-20T01:39:42.484Z,95902.19
2019-02-20T01:42:09.860Z,95902.19
2019-02-20T01:44:37.221Z,95900.39
2019-02-20T01:47:04.581Z,95903.23
2019-02-20T01:49:31.944Z,95897.75
2019-02-20T01:51:59.459Z,95891.80
2019-02-20T01:54:26.836Z,95894.72
2019-02-20T01:56:54.179Z,95891.74
2019-02-20T01:59:21.630Z,95889.02
2019-02-20T02:01:48.979Z,95885.06
2019-02-20T02:04:16.369Z,95882.48
2019-02-20T02:06:43.779Z,95890.11
2019-02-20T02:09:11.099Z,95890.45
2019-02-20T02:11:38.513Z,95894.19
2019-02-20T02:14:05.884Z,95901.41
2019-02-20T02:16:33.219Z,95898.37
2019-02-20T02:19:00.559Z,95899.69
2019-02-20T02:21:27.940Z,95903.92
2019-02-20T02:23:55.288Z,95901.58
2019-02-20T02:26:22.647Z,95902.38
2019-02-20T02:28:50.039Z,95907.70
2019-02-20T02:31:17.400Z,95905.02
2019-02-20T02:33:44.744Z,95897.42
2019-02-20T02:36:12.121Z,95893.53
2019-02-20T02:38:39.440Z,95890.95
2019-02-20T02:41:06.824Z,95897.72
2019-02-20T02:43:34.806Z,95896.92
2019-02-20T02:46:02.142Z,95900.30
2019-02-20T02:48:29.519Z,95899.17
2019-02-20T02:50:56.861Z,95901.79
2019-02-20T02:53:30.765Z,95900.50
2019-02-20T02:55:53.499Z,95898.91
2019-02-20T02:58:20.864Z,95895.13
2019-02-20T03:00:48.242Z,95892.84
2019-02-20T03:03:15.623Z,95885.30
2019-02-20T03:05:43.363Z,95884.66
2019-02-20T03:08:10.681Z,95892.95
2019-02-20T03:10:38.067Z,95894.83
2019-02-20T03:13:05.487Z,95891.37
2019-02-20T03:15:32.819Z,95895.72
2019-02-20T03:18:00.341Z,95900.16
2019-02-20T03:20:27.742Z,95899.41
2019-02-20T03:22:55.168Z,95893.17
2019-02-20T03:25:22.520Z,95902.55
2019-02-20T03:27:49.902Z,95903.09
2019-02-20T03:30:17.304Z,95896.28
2019-02-20T03:32:44.665Z,95907.14
2019-02-20T03:35:12.020Z,95911.39
2019-02-20T03:37:39.436Z,95908.95
2019-02-20T03:40:06.910Z,95900.25
2019-02-20T03:42:34.242Z,95903.52
2019-02-20T03:45:01.641Z,95909.75
2019-02-20T03:47:28.983Z,95909.34
2019-02-20T03:49:56.381Z,95914.25
2019-02-20T03:52:23.722Z,95913.70
2019-02-20T03:54:51.081Z,95922.95
2019-02-20T03:57:18.505Z,95917.71
2019-02-20T03:59:45.882Z,95919.32
2019-02-20T04:02:13.262Z,95919.27
2019-02-20T04:04:40.638Z,95919.67
2019-02-20T04:07:08.002Z,95926.73
2019-02-20T04:09:35.351Z,95923.98
2019-02-20T04:12:02.684Z,95921.25
2019-02-20T04:14:30.027Z,95924.00
2019-02-20T04:16:57.403Z,95925.14
2019-02-20T04:19:24.725Z,95927.46
2019-02-20T04:21:52.086Z,95937.48
2019-02-20T04:24:19.483Z,95927.48
2019-02-20T04:26:46.822Z,95924.22
2019-02-20T04:29:14.184Z,95930.45
2019-02-20T04:31:42.204Z,95935.87
2019-02-20T04:34:09.577Z,95944.04
2019-02-20T04:36:37.342Z,95948.09
2019-02-20T04:39:05.717Z,95942.45
2019-02-20T04:41:33.104Z,95933.81
2019-02-20T04:44:00.478Z,95937.69
2019-02-20T04:46:27.792Z,95942.17
2019-02-20T04:48:55.124Z,95942.98
2019-02-20T04:51:22.484Z,95937.70
2019-02-20T04:53:49.902Z,95935.12
2019-02-20T04:56:17.249Z,95932.94
2019-02-20T04:58:46.262Z,95939.50
2019-02-20T05:01:13.690Z,95947.77
2019-02-20T05:03:41.036Z,95942.44
2019-02-20T05:06:08.413Z,95928.91
2019-02-20T05:08:35.815Z,95925.97
2019-02-20T05:11:03.136Z,95932.67
2019-02-20T05:13:30.663Z,95931.66
2019-02-20T05:15:58.022Z,95934.45
2019-02-20T05:18:25.384Z,95933.28
2019-02-20T05:20:52.765Z,95939.02
2019-02-20T05:23:20.147Z,95948.15
2019-02-20T05:25:47.505Z,95948.37
2019-02-20T05:28:14.928Z,95927.11
2019-02-20T05:30:42.236Z,95932.61
2019-02-20T05:33:09.623Z,95925.14
2019-02-20T05:35:36.984Z,95933.95
2019-02-20T05:38:04.322Z,95925.59
2019-02-20T05:40:31.708Z,95926.05
2019-02-20T05:42:59.066Z,95935.97
2019-02-20T05:45:26.404Z,95941.91
2019-02-20T05:47:53.816Z,95947.47
2019-02-20T05:50:21.164Z,95950.67
2019-02-20T05:52:48.507Z,95954.69
2019-02-20T05:55:15.906Z,95956.89
2019-02-20T05:57:43.588Z,95955.33
2019-02-20T06:00:11.347Z,95961.67
2019-02-20T06:02:38.727Z,95955.32
2019-02-20T06:05:06.189Z,95957.58
2019-02-20T06:07:33.615Z,95959.84
2019-02-20T06:10:01.000Z,95959.84
2019-02-20T06:12:28.339Z,95971.35
2019-02-20T06:14:55.809Z,95969.67
2019-02-20T06:17:23.159Z,95977.34
2019-02-20T06:19:50.506Z,95979.88
2019-02-20T06:22:17.880Z,95982.52
2019-02-20T06:24:45.248Z,95983.87
2019-02-20T06:27:12.647Z,95987.06
2019-02-20T06:29:40.026Z,95983.92
2019-02-20T06:32:07.400Z,95979.27
2019-02-20T06:34:34.782Z,95986.19
2019-02-20T06:37:02.162Z,96000.78
2019-02-20T06:39:29.507Z,95999.70
2019-02-20T06:41:56.907Z,96006.08
2019-02-20T06:44:24.672Z,96012.09
2019-02-20T06:46:52.076Z,96017.50
2019-02-20T06:49:19.422Z,96023.30
2019-02-20T06:51:46.841Z,96020.26
2019-02-20T06:54:17.074Z,96027.38
2019-02-20T06:56:44.464Z,96024.50
2019-02-20T06:59:11.802Z,96027.45
2019-02-20T07:01:39.190Z,96037.66
2019-02-20T07:04:06.801Z,96044.84
2019-02-20T07:07:18.518Z,96043.95
2019-02-20T07:10:14.830Z,96050.80
2019-02-20T07:13:22.614Z,96051.86
2019-02-20T07:16:04.182Z,96055.86
2019-02-20T07:18:56.042Z,96057.25
2019-02-20T07:22:29.370Z,96048.61
2019-02-20T07:25:41.405Z,96054.89
2019-02-20T07:28:33.721Z,96057.81
2019-02-20T07:31:01.473Z,96061.05
2019-02-20T07:33:28.806Z,96073.31
2019-02-20T07:35:56.325Z,96072.14
2019-02-20T07:38:23.688Z,96068.30
2019-02-20T07:40:51.022Z,96062.31
2019-02-20T07:43:18.363Z,96053.29
2019-02-20T07:45:45.701Z,96065.92
2019-02-20T07:48:13.082Z,96069.75
2019-02-20T07:50:40.421Z,96077.16
2019-02-20T07:53:10.043Z,96068.22
2019-02-20T07:55:37.461Z,96067.32
2019-02-20T07:58:04.802Z,96072.62
2019-02-20T08:00:32.123Z,96078.16
2019-02-20T08:02:59.539Z,96066.23
2019-02-20T08:05:26.894Z,96067.39
2019-02-20T08:07:54.289Z,96072.25
2019-02-20T08:10:21.675Z,96070.00
2019-02-20T08:12:49.060Z,96073.88
2019-02-20T08:15:16.443Z,96080.20
2019-02-20T08:17:43.824Z,96081.72
2019-02-20T08:20:11.349Z,96076.37
2019-02-20T08:22:38.742Z,96081.39
2019-02-20T08:25:06.427Z,96085.33
2019-02-20T08:27:33.746Z,96096.96
2019-02-20T08:30:01.147Z,96095.67
2019-02-20T08:32:28.990Z,96089.41
2019-02-20T08:34:56.329Z,96093.53
2019-02-20T08:37:23.665Z,96093.28
2019-02-20T08:39:51.293Z,96096.94
2019-02-20T08:42:18.684Z,96091.95
2019-02-20T08:44:46.141Z,96093.24
2019-02-20T08:47:13.482Z,96099.72
2019-02-20T08:49:40.857Z,96095.11
2019-02-20T08:52:08.210Z,96095.05
2019-02-20T08:54:35.542Z,96091.03
2019-02-20T08:57:02.921Z,96089.73
2019-02-20T08:59:30.259Z,96091.48
2019-02-20T09:01:57.660Z,96090.44
2019-02-20T09:04:25.025Z,96097.13
2019-02-20T09:06:52.344Z,96089.56
2019-02-20T09:09:19.745Z,96087.80
2019-02-20T09:11:47.083Z,96089.80
2019-02-20T09:14:14.405Z,96089.04
2019-02-20T09:16:41.801Z,96085.72
2019-02-20T09:19:09.162Z,96079.12
2019-02-20T09:21:36.557Z,96077.34
2019-02-20T09:24:03.924Z,96068.47
2019-02-20T09:26:31.265Z,96076.59
2019-02-20T09:28:58.631Z,96086.69
2019-02-20T09:31:26.024Z,96079.11
2019-02-20T09:33:53.331Z,96072.62
2019-02-20T09:36:20.680Z,96069.17
2019-02-20T09:38:48.011Z,96077.44
2019-02-20T09:41:15.351Z,96071.41
2019-02-20T09:43:44.600Z,96068.25
2019-02-20T09:46:11.943Z,96065.34
2019-02-20T09:48:39.300Z,96069.09
2019-02-20T09:51:06.941Z,96063.20
2019-02-20T09:53:34.305Z,96060.08
2019-02-20T09:56:02.035Z,96065.15
2019-02-20T09:58:29.394Z,96060.93
2019-02-20T10:00:56.827Z,96059.17
2019-02-20T10:03:24.208Z,96059.67
2019-02-20T10:05:51.614Z,96063.50
2019-02-20T10:08:19.040Z,96064.18
2019-02-20T10:10:46.427Z,96067.74
2019-02-20T10:13:13.778Z,96065.67
2019-02-20T10:15:41.223Z,96070.79
2019-02-20T10:18:08.588Z,96063.25
2019-02-20T10:20:35.919Z,96058.94
2019-02-20T10:23:03.301Z,96060.20
2019-02-20T10:25:30.650Z,96061.41
2019-02-20T10:27:57.977Z,96059.61
2019-02-20T10:30:25.576Z,96062.05
2019-02-20T10:32:53.139Z,96055.70
2019-02-20T10:35:20.731Z,96062.23
2019-02-20T10:37:48.401Z,96058.23
2019-02-20T10:40:15.961Z,96058.34
2019-02-20T10:42:43.503Z,96055.86
2019-02-20T10:45:11.354Z,96059.66
2019-02-20T10:47:38.859Z,96046.91
2019-02-20T10:50:06.793Z,96035.73
2019-02-20T10:52:34.302Z,96039.44
2019-02-20T10:55:01.644Z,96044.70
2019-02-20T10:57:29.000Z,96046.76
2019-02-20T10:59:56.405Z,96041.23
2019-02-20T11:02:23.786Z,96040.71
2019-02-20T11:04:51.247Z,96039.36
2019-02-20T11:07:18.620Z,96039.27
2019-02-20T11:09:46.365Z,96042.18
2019-02-20T11:12:13.934Z,96043.25
2019-02-20T11:14:41.275Z,96044.11
2019-02-20T11:17:08.689Z,96050.50
2019-02-20T11:19:39.132Z,96042.45
2019-02-20T11:22:06.557Z,96041.60
2019-02-20T11:24:33.940Z,96037.40
2019-02-20T11:27:01.289Z,96038.30
2019-02-20T11:29:28.641Z,96038.92
2019-02-20T11:31:56.583Z,96029.69
2019-02-20T11:34:24.131Z,96024.10
2019-02-20T11:36:51.466Z,96033.94
2019-02-20T11:39:18.835Z,96029.83
2019-02-20T11:41:46.179Z,96040.95
2019-02-20T11:44:20.781Z,96031.02
2019-02-20T11:46:44.636Z,96028.05
2019-02-20T11:49:12.185Z,96014.08
2019-02-20T11:51:39.560Z,96009.93
2019-02-20T11:54:06.946Z,96008.11
2019-02-20T11:56:34.358Z,96006.77
2019-02-20T11:59:01.721Z,96003.74
2019-02-20T12:01:29.092Z,95994.84
2019-02-20T12:03:56.476Z,95984.41
2019-02-20T12:06:23.860Z,95990.18
2019-02-20T12:08:51.194Z,95992.61
2019-02-20T12:11:18.597Z,95991.52
2019-02-20T12:13:45.994Z,95990.75
2019-02-20T12:16:13.859Z,95992.06
2019-02-20T12:18:41.243Z,95987.92
2019-02-20T12:21:09.343Z,95987.27
2019-02-20T12:23:37.066Z,95985.41
2019-02-20T12:26:04.855Z,95988.61
2019-02-20T12:28:32.205Z,95989.53
2019-02-20T12:30:59.621Z,95981.82
2019-02-20T12:33:26.943Z,95979.09
2019-02-20T12:35:54.336Z,95976.85
2019-02-20T12:38:21.909Z,95982.61
2019-02-20T12:40:50.861Z,95975.92
2019-02-20T12:43:18.407Z,95972.72
2019-02-20T12:45:45.795Z,95973.31
2019-02-20T12:48:13.178Z,95972.69
2019-02-20T12:50:40.516Z,95963.70
2019-02-20T12:53:07.882Z,95969.52
2019-02-20T12:55:35.268Z,95963.98
2019-02-20T12:58:02.739Z,95958.95
2019-02-20T13:00:30.189Z,95955.33
2019-02-20T13:02:57.633Z,95956.45
2019-02-20T13:05:25.598Z,95955.48
2019-02-20T13:07:53.061Z,95951.50
2019-02-20T13:10:20.392Z,95949.11
2019-02-20T13:12:47.739Z,95949.36
2019-02-20T13:15:15.175Z,95948.13
2019-02-20T13:17:42.567Z,95941.41
2019-02-20T13:20:10.082Z,95942.25
2019-02-20T13:22:37.522Z,95950.30
2019-02-20T13:25:05.141Z,95931.95
2019-02-20T13:27:32.561Z,95941.68
2019-02-20T13:29:59.914Z,95935.87
2019-02-20T13:32:27.259Z,95942.45
2019-02-20T13:34:54.636Z,95940.02
2019-02-20T13:37:22.043Z,95943.16
2019-02-20T13:39:49.425Z,95933.73
2019-02-20T13:42:17.074Z,95936.50
2019-02-20T13:44:44.460Z,95932.92
2019-02-20T13:47:11.822Z,95931.11
2019-02-20T13:49:39.390Z,95940.06
2019-02-20T13:52:06.811Z,95936.09
2019-02-20T13:54:35.588Z,95941.26
2019-02-20T13:57:04.050Z,95934.89
2019-02-20T13:59:31.480Z,95938.96
2019-02-20T14:01:58.969Z,95935.02
2019-02-20T14:04:26.377Z,95940.36
2019-02-20T14:06:54.344Z,95937.55
2019-02-20T14:09:23.952Z,95941.02
2019-02-20T14:11:51.312Z,95940.55
2019-02-20T14:14:18.689Z,95939.38
2019-02-20T14:16:46.107Z,95939.48
2019-02-20T14:19:13.789Z,95941.14
2019-02-20T14:21:41.292Z,95936.85
2019-02-20T14:24:08.702Z,95938.16
2019-02-20T14:26:36.349Z,95934.88
2019-02-20T14:29:03.883Z,95941.92
2019-02-20T14:31:31.360Z,95933.09
2019-02-20T14:33:58.855Z,95936.64
2019-02-20T14:36:26.592Z,95938.91
2019-02-20T14:38:53.999Z,95932.39
2019-02-20T14:41:21.505Z,95935.17
2019-02-20T14:43:48.899Z,95933.62
2019-02-20T14:46:16.307Z,95929.91
2019-02-20T14:48:43.724Z,95933.36
2019-02-20T14:51:11.143Z,95937.16
2019-02-20T14:53:38.602Z,95925.98
2019-02-20T14:56:06.225Z,95935.91
2019-02-20T14:58:33.564Z,95937.19
2019-02-20T15:01:00.962Z,95941.45
2019-02-20T15:03:28.354Z,95944.28
2019-02-20T15:05:55.830Z,95945.37
2019-02-20T15:08:23.227Z,95950.42
2019-02-20T15:10:50.739Z,95948.48
2019-02-20T15:13:18.334Z,95952.09
2019-02-20T15:15:47.388Z,95950.14
2019-02-20T15:18:14.898Z,95951.60
2019-02-20T15:20:43.225Z,95949.19
2019-02-20T15:23:10.984Z,95952.86
2019-02-20T15:25:38.902Z,95951.90
2019-02-20T15:28:06.555Z,95951.63
2019-02-20T15:30:34.493Z,95957.36
2019-02-20T15:33:02.503Z,95952.98
2019-02-20T15:35:30.243Z,95956.97
2019-02-20T15:37:58.089Z,95953.14
2019-02-20T15:40:26.019Z,95961.25
2019-02-20T15:42:53.800Z,95959.86
2019-02-20T15:45:21.729Z,95958.45
2019-02-20T15:47:49.702Z,95966.20
2019-02-20T15:50:17.610Z,95971.60
2019-02-20T15:52:46.462Z,95970.58
2019-02-20T15:55:14.400Z,95969.77
2019-02-20T15:57:42.392Z,95969.89
2019-02-20T16:00:11.795Z,95971.69
2019-02-20T16:02:40.002Z,95975.52
2019-02-20T16:05:07.970Z,95978.63
2019-02-20T16:07:36.103Z,95982.61
2019-02-20T16:10:06.035Z,95982.19
2019-02-20T16:12:33.964Z,95980.89
2019-02-20T16:15:01.780Z,95980.74
2019-02-20T16:17:29.720Z,95979.63
2019-02-20T16:19:57.394Z,95977.24
2019-02-20T16:22:25.159Z,95979.98
2019-02-20T16:24:53.080Z,95994.77
2019-02-20T16:27:21.131Z,96001.56
2019-02-20T16:29:57.955Z,95998.22
2019-02-20T16:32:26.031Z,95997.21
2019-02-20T16:34:53.739Z,96008.39
2019-02-20T16:37:21.769Z,96003.45
2019-02-20T16:39:49.828Z,96001.30
2019-02-20T16:42:19.942Z,96012.84
2019-02-20T16:44:49.241Z,96012.78
2019-02-20T16:47:17.061Z,96017.91
2019-02-20T16:49:45.218Z,96021.19
2019-02-20T16:52:13.195Z,96015.19
2019-02-20T16:54:41.101Z,96024.98
2019-02-20T16:57:09.233Z,96024.93
2019-02-20T16:59:37.090Z,96030.66
2019-02-20T17:02:05.187Z,96027.91
2019-02-20T17:04:33.196Z,96035.02
2019-02-20T17:07:01.220Z,96029.49
2019-02-20T17:09:29.226Z,96033.69
2019-02-20T17:11:57.059Z,96036.27
2019-02-20T17:14:24.962Z,96043.09
2019-02-20T17:16:52.974Z,96044.05
2019-02-20T17:19:20.954Z,96051.08
2019-02-20T17:21:49.064Z,96055.34
2019-02-20T17:24:17.021Z,96054.33
2019-02-20T17:26:44.985Z,96053.16
2019-02-20T17:29:12.925Z,96048.30
2019-02-20T17:31:40.803Z,96054.56
2019-02-20T17:34:08.737Z,96063.80
2019-02-20T17:36:36.823Z,96061.95
2019-02-20T17:39:07.378Z,96068.19
2019-02-20T17:41:35.306Z,96068.66
2019-02-20T17:44:03.414Z,96074.50
2019-02-20T17:46:31.344Z,96081.56
2019-02-20T17:48:59.326Z,96086.28
2019-02-20T17:51:27.236Z,96089.34
2019-02-20T17:53:55.155Z,96082.29
2019-02-20T17:56:23.490Z,96091.48
2019-02-20T17:58:51.438Z,96096.45
2019-02-20T18:01:19.397Z,96096.42
2019-02-20T18:03:48.205Z,96108.11
2019-02-20T18:06:16.278Z,96103.12
2019-02-20T18:08:44.346Z,96106.55
2019-02-20T18:11:12.379Z,96113.20
2019-02-20T18:13:40.276Z,96109.86
2019-02-20T18:16:08.164Z,96116.69
2019-02-20T18:18:36.446Z,96122.93
2019-02-20T18:21:04.429Z,96127.47
2019-02-20T18:23:33.445Z,96124.67
2019-02-20T18:26:01.443Z,96126.63
2019-02-20T18:28:29.483Z,96125.65
2019-02-20T18:30:58.575Z,96133.68
2019-02-20T18:33:26.637Z,96138.11
2019-02-20T18:35:54.666Z,96135.97
2019-02-20T18:38:22.781Z,96139.25
2019-02-20T18:40:53.269Z,96141.26
2019-02-20T18:43:21.300Z,96145.98
2019-02-20T18:45:49.313Z,96151.76
2019-02-20T18:48:18.889Z,96156.41
2019-02-20T18:50:47.299Z,96157.78
2019-02-20T18:53:15.292Z,96157.74
2019-02-20T18:55:43.958Z,96159.63
2019-02-20T18:58:12.023Z,96168.27
2019-02-20T19:00:40.050Z,96166.89
2019-02-20T19:03:08.153Z,96166.78
2019-02-20T19:05:36.486Z,96168.65
2019-02-20T19:08:34.359Z,96167.28
2019-02-20T19:11:06.002Z,96174.37
2019-02-20T19:14:01.388Z,96176.58
2019-02-20T19:17:12.237Z,96178.30
2019-02-20T19:20:03.959Z,96185.77
2019-02-20T19:23:10.710Z,96181.47
2019-02-20T19:26:17.303Z,96187.70
2019-02-20T19:29:38.504Z,96190.63
2019-02-20T19:32:40.865Z,96190.42
2019-02-20T19:35:48.620Z,96204.23
2019-02-20T19:39:00.525Z,96209.73
2019-02-20T19:42:07.126Z,96207.44
2019-02-20T19:45:24.689Z,96216.78
2019-02-20T19:48:39.963Z,96215.40
2019-02-20T19:51:39.434Z,96222.75
2019-02-20T19:54:32.921Z,96234.51
2019-02-20T19:57:36.704Z,96239.42
2019-02-20T20:00:44.574Z,96238.52
2019-02-20T20:03:47.643Z,96239.84
2019-02-20T20:06:32.866Z,96243.39
2019-02-20T20:09:40.536Z,96244.19
2019-02-20T20:12:37.519Z,96244.61
2019-02-20T20:15:33.660Z,96250.77
2019-02-20T20:18:44.951Z,96248.67
2019-02-20T20:21:39.114Z,96253.54
2019-02-20T20:24:31.598Z,96255.77
2019-02-20T20:27:22.225Z,96246.95
2019-02-20T20:30:55.843Z,96249.80
2019-02-20T20:34:20.086Z,96254.53
2019-02-20T20:37:09.193Z,96263.41
2019-02-20T20:40:14.283Z,96256.92
2019-02-20T20:43:21.404Z,96262.11
2019-02-20T20:46:15.089Z,96268.59
2019-02-20T20:48:51.004Z,96272.14
2019-02-20T20:52:00.820Z,96272.47
2019-02-20T20:55:01.471Z,96273.29
2019-02-20T20:58:02.169Z,96281.09
2019-02-20T21:01:11.650Z,96285.73
2019-02-20T21:03:55.017Z,96279.02
2019-02-20T21:06:56.778Z,96279.27
2019-02-20T21:10:03.827Z,96282.82
2019-02-20T21:13:22.154Z,96283.48
2019-02-20T21:16:13.254Z,96291.00
2019-02-20T21:19:04.673Z,96289.39
2019-02-20T21:22:12.649Z,96282.89
2019-02-20T21:24:59.186Z,96301.00
2019-02-20T21:27:54.690Z,96301.33
2019-02-20T21:30:51.919Z,96295.95
2019-02-20T21:34:01.052Z,96298.91
2019-02-20T21:36:43.603Z,96295.95
2019-02-20T21:39:34.042Z,96304.06
2019-02-20T21:42:22.629Z,96310.45
2019-02-20T21:45:02.537Z,96310.70
2019-02-20T21:47:59.542Z,96320.11
2019-02-20T21:51:07.954Z,96312.84
2019-02-20T21:54:07.399Z,96312.97
2019-02-20T21:57:15.879Z,96312.87
2019-02-20T22:00:24.414Z,96315.83
2019-02-20T22:03:42.358Z,96314.27
2019-02-20T22:06:52.282Z,96318.27
2019-02-20T22:09:57.712Z,96317.17
2019-02-20T22:13:06.725Z,96317.78
2019-02-20T22:15:46.955Z,96316.22
2019-02-20T22:18:47.881Z,96317.31
2019-02-20T22:22:07.143Z,96321.40
2019-02-20T22:25:09.199Z,96318.73
2019-02-20T22:28:14.217Z,96317.28
2019-02-20T22:30:55.100Z,96317.71
2019-02-20T22:33:46.921Z,96324.44
2019-02-20T22:36:53.142Z,96321.77
2019-02-20T22:39:48.479Z,96325.45
2019-02-20T22:42:49.877Z,96328.12
2019-02-20T22:45:52.592Z,96330.91
2019-02-20T22:48:55.901Z,96321.81
2019-02-20T22:52:03.541Z,96326.48
2019-02-20T22:55:14.433Z,96330.48
2019-02-20T22:58:04.939Z,96330.23
2019-02-20T23:01:10.102Z,96333.08
2019-02-20T23:04:02.942Z,96332.01
2019-02-20T23:06:56.946Z,96331.61
2019-02-20T23:09:52.817Z,96342.48
2019-02-20T23:12:51.279Z,96338.16
2019-02-20T23:15:18.732Z,96335.94
2019-02-20T23:17:46.072Z,96340.02
2019-02-20T23:20:13.448Z,96345.92
2019-02-20T23:22:40.840Z,96341.66
2019-02-20T23:25:08.182Z,96351.89
2019-02-20T23:27:35.530Z,96346.37
2019-02-20T23:30:12.522Z,96346.99
2019-02-20T23:32:32.379Z,96354.38
2019-02-20T23:34:59.702Z,96350.37
2019-02-20T23:37:27.099Z,96352.18
2019-02-20T23:39:54.440Z,96352.46
2019-02-20T23:42:21.823Z,96352.56
2019-02-20T23:44:49.182Z,96352.89
2019-02-20T23:47:16.542Z,96343.23
2019-02-20T23:49:43.919Z,96350.60
2019-02-20T23:52:11.287Z,96349.75
2019-02-20T23:54:38.642Z,96353.16
2019-02-20T23:57:05.999Z,96357.13
2019-02-20T23:59:33.331Z,96354.76
